Time;durP1;ratioP1;P1;durP2;ratioP2;P2;SDS_P1;SDS_P2;PMS_P1;PMS_P2;Temp;Humidity;BMP_temperature;BMP_pressure;BME280_temperature;BME280_humidity;BME280_pressure;Samples;Min_cycle;Max_cycle;Signal;HPM_P1;HPM_P2
2022/03/14 00:01:59;;;;;;;7.55;4.25;;;;;;;;;;5039956;28;20025;-83
2022/03/14 00:04:25;;;;;;;7.50;4.75;;;;;;;;;;5040397;28;20064;-83
2022/03/14 00:06:52;;;;;;;8.00;3.90;;;;;;;;;;5021105;28;20025;-80
2022/03/14 00:09:18;;;;;;;6.75;4.28;;;;;;;;;;5039384;28;20374;-83
2022/03/14 00:11:44;;;;;;;6.43;4.00;;;;;;;;;;5040946;28;20025;-83
2022/03/14 00:14:10;;;;;;;9.10;4.43;;;;;;;;;;5039027;28;20025;-84
2022/03/14 00:16:41;;;;;;;6.15;3.58;;;;;;;;;;5038923;28;20033;-83
2022/03/14 00:19:07;;;;;;;6.67;3.57;;;;;;;;;;5038952;28;20047;-83
2022/03/14 00:21:38;;;;;;;9.35;3.95;;;;;;;;;;5038737;28;20025;-84
2022/03/14 00:24:04;;;;;;;;;;;;;;;;;;5036962;28;20038;-81
2022/03/14 00:26:30;;;;;;;5.60;3.67;;;;;;;;;;5036140;28;19911;-83
2022/03/14 00:28:57;;;;;;;3.88;2.90;;;;;;;;;;5038102;28;20128;-85
2022/03/14 00:31:23;;;;;;;5.03;3.20;;;;;;;;;;5019448;28;20030;-85
2022/03/14 00:33:49;;;;;;;3.85;2.65;;;;;;;;;;5037639;28;20028;-85
2022/03/14 00:36:15;;;;;;;4.07;3.05;;;;;;;;;;5037858;28;20033;-84
2022/03/14 00:38:41;;;;;;;4.32;2.72;;;;;;;;;;5019496;28;20096;-84
2022/03/14 00:41:08;;;;;;;5.32;2.85;;;;;;;;;;5476484;22;20355;-82
2022/03/14 00:43:34;;;;;;;2.85;2.55;;;;;;;;;;5017899;28;20140;-85
2022/03/14 00:46:00;;;;;;;2.92;2.25;;;;;;;;;;5001297;28;20022;-85
2022/03/14 00:48:27;;;;;;;5.35;2.45;;;;;;;;;;5018463;28;20033;-86
2022/03/14 00:50:53;;;;;;;2.97;2.22;;;;;;;;;;5001620;28;20111;-84
2022/03/14 00:53:19;;;;;;;6.20;2.40;;;;;;;;;;5019485;28;20025;-83
2022/03/14 00:55:45;;;;;;;3.17;2.40;;;;;;;;;;5018599;28;20052;-84
2022/03/14 00:58:12;;;;;;;3.28;2.20;;;;;;;;;;5018846;28;20068;-83
2022/03/14 01:00:38;;;;;;;2.22;1.83;;;;;;;;;;5018002;28;20125;-83
2022/03/14 01:03:04;;;;;;;2.05;1.83;;;;;;;;;;5018193;28;20084;-81
2022/03/14 01:05:30;;;;;;;2.60;1.98;;;;;;;;;;5000645;28;20030;-83
2022/03/14 01:07:56;;;;;;;3.30;1.98;;;;;;;;;;5017983;28;20045;-84
2022/03/14 01:10:23;;;;;;;4.00;2.40;;;;;;;;;;5018404;28;20026;-84
2022/03/14 01:12:49;;;;;;;3.00;2.03;;;;;;;;;;5017576;28;20026;-82
2022/03/14 01:15:15;;;;;;;2.40;1.90;;;;;;;;;;5017263;28;20033;-84
2022/03/14 01:17:42;;;;;;;2.97;2.25;;;;;;;;;;5016620;28;20050;-84
2022/03/14 01:20:10;;;;;;;4.40;1.95;;;;;;;;;;4998117;28;20037;-84
2022/03/14 01:22:36;;;;;;;5.03;2.28;;;;;;;;;;5016790;28;20080;-84
2022/03/14 01:25:03;;;;;;;2.30;1.85;;;;;;;;;;5016685;28;20057;-85
2022/03/14 01:27:29;;;;;;;4.13;2.22;;;;;;;;;;5015440;28;20021;-83
2022/03/14 01:29:55;;;;;;;2.25;1.63;;;;;;;;;;5016020;28;20120;-83
2022/03/14 01:32:21;;;;;;;2.70;1.95;;;;;;;;;;5016222;28;20057;-83
2022/03/14 01:34:47;;;;;;;1.98;1.50;;;;;;;;;;5014679;28;20428;-84
2022/03/14 01:37:14;;;;;;;3.47;1.95;;;;;;;;;;4996426;28;20026;-83
2022/03/14 01:39:39;;;;;;;2.58;2.10;;;;;;;;;;4997561;28;20025;-84
2022/03/14 01:42:06;;;;;;;1.67;1.38;;;;;;;;;;5014671;28;20157;-82
2022/03/14 01:44:32;;;;;;;3.25;2.35;;;;;;;;;;4997272;28;20438;-84
2022/03/14 01:47:00;;;;;;;2.17;1.80;;;;;;;;;;5014586;28;20340;-83
2022/03/14 01:49:27;;;;;;;1.50;1.40;;;;;;;;;;4997872;28;20022;-84
2022/03/14 01:51:54;;;;;;;1.63;1.42;;;;;;;;;;5015307;28;20032;-83
2022/03/14 01:54:20;;;;;;;5.47;2.13;;;;;;;;;;5014998;28;20030;-84
2022/03/14 01:56:46;;;;;;;2.00;1.65;;;;;;;;;;5015021;28;20057;-85
2022/03/14 01:59:12;;;;;;;2.25;1.60;;;;;;;;;;5014786;28;20026;-84
2022/03/14 02:01:38;;;;;;;1.98;1.58;;;;;;;;;;4994694;28;20030;-83
2022/03/14 02:04:04;;;;;;;2.63;2.08;;;;;;;;;;4996706;28;20023;-82
2022/03/14 02:06:32;;;;;;;3.03;1.77;;;;;;;;;;5093589;22;20059;-84
2022/03/14 02:08:58;;;;;;;2.28;1.58;;;;;;;;;;5034764;28;20084;-85
2022/03/14 02:11:26;;;;;;;2.78;1.48;;;;;;;;;;5034632;28;20033;-83
2022/03/14 02:13:52;;;;;;;2.00;1.65;;;;;;;;;;5016587;28;20120;-81
2022/03/14 02:16:18;;;;;;;1.65;1.55;;;;;;;;;;5034185;28;20038;-83
2022/03/14 02:18:44;;;;;;;2.15;1.70;;;;;;;;;;5035107;28;20477;-82
2022/03/14 02:21:11;;;;;;;2.00;1.60;;;;;;;;;;5016551;28;20026;-83
2022/03/14 02:23:37;;;;;;;2.28;1.70;;;;;;;;;;5035063;28;20013;-83
2022/03/14 02:26:03;;;;;;;2.28;1.60;;;;;;;;;;5035414;28;20037;-82
2022/03/14 02:28:31;;;;;;;2.03;1.60;;;;;;;;;;5033925;28;20081;-82
2022/03/14 02:30:57;;;;;;;2.53;2.03;;;;;;;;;;5034729;28;20018;-84
2022/03/14 02:33:23;;;;;;;2.83;2.15;;;;;;;;;;5034625;28;20029;-82
2022/03/14 02:35:49;;;;;;;3.85;1.90;;;;;;;;;;5035115;28;20022;-82
2022/03/14 02:38:16;;;;;;;2.00;1.80;;;;;;;;;;5033362;28;20025;-83
2022/03/14 02:40:46;;;;;;;3.15;1.80;;;;;;;;;;5034161;28;20113;-83
2022/03/14 02:43:14;;;;;;;2.40;1.65;;;;;;;;;;5016652;28;20100;-83
2022/03/14 02:45:40;;;;;;;2.75;1.85;;;;;;;;;;5016159;28;20029;-82
2022/03/14 02:48:07;;;;;;;3.55;1.70;;;;;;;;;;5034148;28;20037;-82
2022/03/14 02:50:34;;;;;;;2.40;2.20;;;;;;;;;;5034164;28;20040;-83
2022/03/14 02:53:00;;;;;;;4.43;2.08;;;;;;;;;;5019837;28;20040;-82
2022/03/14 02:55:30;;;;;;;2.33;1.92;;;;;;;;;;5034892;28;20037;-82
2022/03/14 02:57:58;;;;;;;2.88;1.90;;;;;;;;;;5003414;28;20112;-82
2022/03/14 03:00:24;;;;;;;2.58;2.20;;;;;;;;;;5023617;28;20030;-84
2022/03/14 03:02:51;;;;;;;3.88;2.10;;;;;;;;;;5025575;28;20021;-83
2022/03/14 03:05:17;;;;;;;4.10;2.28;;;;;;;;;;5035111;28;20642;-82
2022/03/14 03:07:45;;;;;;;2.60;2.20;;;;;;;;;;5033334;28;20029;-84
2022/03/14 03:10:12;;;;;;;3.40;2.20;;;;;;;;;;5033718;28;20029;-83
2022/03/14 03:12:40;;;;;;;3.33;2.42;;;;;;;;;;5015463;28;20032;-84
2022/03/14 03:15:07;;;;;;;2.28;1.92;;;;;;;;;;5026664;28;20029;-83
2022/03/14 03:17:34;;;;;;;2.40;2.20;;;;;;;;;;5034841;28;20147;-84
2022/03/14 03:20:00;;;;;;;5.30;2.55;;;;;;;;;;5036423;28;20460;-84
2022/03/14 03:23:52;;;;;;;4.00;2.40;;;;;;;;;;5034781;28;20037;-82
2022/03/14 03:26:10;;;;;;;2.40;2.20;;;;;;;;;;4962251;28;20112;-84
2022/03/14 03:28:36;;;;;;;5.20;2.85;;;;;;;;;;4949018;28;20071;-85
2022/03/14 03:31:06;;;;;;;3.15;2.30;;;;;;;;;;5017345;28;20096;-84
2022/03/14 03:33:36;;;;;;;2.85;2.55;;;;;;;;;;5036617;28;20396;-83
2022/03/14 03:36:02;;;;;;;5.55;2.50;;;;;;;;;;5017221;28;20079;-85
2022/03/14 03:38:58;;;;;;;3.47;2.50;;;;;;;;;;5034082;28;20109;-85
2022/03/14 03:41:33;;;;;;;3.83;2.42;;;;;;;;;;4949784;28;20661;-85
2022/03/14 03:43:59;;;;;;;2.33;2.05;;;;;;;;;;4996084;28;20037;-85
2022/03/14 03:46:35;;;;;;;3.50;1.70;;;;;;;;;;5015367;28;20038;-83
2022/03/14 03:49:02;;;;;;;3.78;2.50;;;;;;;;;;5003440;28;20485;-85
2022/03/14 03:51:27;;;;;;;4.70;2.15;;;;;;;;;;5024143;28;20072;-86
2022/03/14 03:53:56;;;;;;;2.92;2.13;;;;;;;;;;5015465;28;20089;-84
2022/03/14 03:56:22;;;;;;;2.58;2.15;;;;;;;;;;5031606;28;20197;-84
2022/03/14 03:59:23;;;;;;;;;;;;;;;;;;;;;
2022/03/14 04:01:50;;;;;;;4.20;2.40;;;;;;;;;;5033708;28;20064;-81
2022/03/14 04:08:14;;;;;;;3.88;2.78;;;;;;;;;;5017703;28;20132;-86
2022/03/14 04:11:04;;;;;;;;;;;;;;;;;;;;;
2022/03/14 04:13:31;;;;;;;8.57;3.10;;;;;;;;;;5036613;28;20588;-86
2022/03/14 04:15:59;;;;;;;5.70;3.05;;;;;;;;;;5018846;28;20029;-84
2022/03/14 04:18:25;;;;;;;9.45;3.08;;;;;;;;;;5035916;28;20018;-85
2022/03/14 04:20:52;;;;;;;8.45;3.22;;;;;;;;;;5036543;28;20033;-84
2022/03/14 04:23:19;;;;;;;7.65;3.10;;;;;;;;;;5037880;28;20026;-87
2022/03/14 04:25:53;;;;;;;10.85;3.42;;;;;;;;;;5036314;28;20441;-85
2022/03/14 04:28:19;;;;;;;9.18;3.65;;;;;;;;;;5012628;23;20107;-86
2022/03/14 04:30:45;;;;;;;12.63;4.03;;;;;;;;;;4999209;28;20042;-84
2022/03/14 04:33:11;;;;;;;10.45;3.75;;;;;;;;;;4999045;28;20026;-84
2022/03/14 04:36:13;;;;;;;9.93;3.55;;;;;;;;;;4998651;28;20087;-85
2022/03/14 04:38:37;;;;;;;11.73;3.85;;;;;;;;;;4978339;28;20027;-86
2022/03/14 04:44:05;;;;;;;12.75;5.00;;;;;;;;;;4966929;28;20027;-82
2022/03/14 04:46:59;;;;;;;13.57;4.53;;;;;;;;;;4976754;28;20031;-83
2022/03/14 04:53:12;;;;;;;18.55;4.93;;;;;;;;;;4964988;28;20035;-84
2022/03/14 04:58:39;;;;;;;11.82;5.30;;;;;;;;;;4977881;28;20078;-84
2022/03/14 05:01:05;;;;;;;;;;;;;;;;;;4980502;28;20042;-83
2022/03/14 05:03:31;;;;;;;15.55;4.95;;;;;;;;;;4978384;28;19910;-83
2022/03/14 05:05:57;;;;;;;15.13;5.30;;;;;;;;;;4978482;28;20479;-83
2022/03/14 05:08:23;;;;;;;12.60;5.78;;;;;;;;;;4959864;28;20033;-82
2022/03/14 05:10:50;;;;;;;16.05;5.40;;;;;;;;;;4959149;28;20023;-82
2022/03/14 05:13:17;;;;;;;11.35;4.47;;;;;;;;;;4977422;28;20035;-84
2022/03/14 05:15:43;;;;;;;16.08;5.68;;;;;;;;;;4962802;28;20047;-84
2022/03/14 05:18:09;;;;;;;11.20;4.85;;;;;;;;;;4985920;28;20031;-83
2022/03/14 05:20:37;;;;;;;16.63;4.60;;;;;;;;;;4967182;28;20031;-85
2022/03/14 05:23:03;;;;;;;11.43;4.43;;;;;;;;;;4977984;28;20019;-80
2022/03/14 05:25:30;;;;;;;11.80;4.68;;;;;;;;;;4978315;28;20506;-84
2022/03/14 05:27:57;;;;;;;10.88;4.43;;;;;;;;;;4960870;28;20516;-84
2022/03/14 05:30:24;;;;;;;11.27;4.70;;;;;;;;;;4960469;28;20414;-84
2022/03/14 05:32:50;;;;;;;8.77;4.45;;;;;;;;;;4961488;28;20027;-84
2022/03/14 05:35:17;;;;;;;10.63;4.45;;;;;;;;;;4973573;28;20035;-83
2022/03/14 05:37:43;;;;;;;13.52;4.57;;;;;;;;;;4973120;28;20023;-83
2022/03/14 05:40:10;;;;;;;10.93;4.15;;;;;;;;;;4957707;29;20024;-82
2022/03/14 05:42:36;;;;;;;9.68;3.85;;;;;;;;;;4960675;28;20023;-84
2022/03/14 05:45:03;;;;;;;8.15;4.15;;;;;;;;;;4979963;28;20023;-84
2022/03/14 05:47:29;;;;;;;8.63;3.67;;;;;;;;;;4978702;28;20027;-84
2022/03/14 05:49:55;;;;;;;11.02;4.30;;;;;;;;;;4965567;28;20036;-84
2022/03/14 05:52:21;;;;;;;14.77;4.88;;;;;;;;;;4997659;28;20496;-84
2022/03/14 05:54:48;;;;;;;8.45;3.67;;;;;;;;;;5000870;28;20034;-84
2022/03/14 05:57:14;;;;;;;7.80;4.07;;;;;;;;;;4996786;28;20031;-84
2022/03/14 05:59:40;;;;;;;21.77;4.28;;;;;;;;;;4980624;28;20431;-84
2022/03/14 06:02:06;;;;;;;9.43;3.70;;;;;;;;;;4979180;28;20023;-83
2022/03/14 06:04:32;;;;;;;7.97;3.17;;;;;;;;;;4979587;28;20054;-83
2022/03/14 06:06:58;;;;;;;8.88;3.35;;;;;;;;;;4979210;28;20026;-83
2022/03/14 06:09:28;;;;;;;8.10;3.45;;;;;;;;;;4979848;28;20042;-85
2022/03/14 06:11:54;;;;;;;11.27;3.30;;;;;;;;;;4958646;28;20034;-84
2022/03/14 06:14:21;;;;;;;8.77;2.65;;;;;;;;;;4978910;28;20053;-84
2022/03/14 06:16:47;;;;;;;4.72;2.70;;;;;;;;;;4978465;28;20023;-84
2022/03/14 06:19:13;;;;;;;7.65;3.13;;;;;;;;;;4978975;28;20031;-85
2022/03/14 06:21:39;;;;;;;8.57;3.00;;;;;;;;;;4978767;28;20022;-84
2022/03/14 06:24:06;;;;;;;8.73;3.00;;;;;;;;;;4979785;28;20027;-83
2022/03/14 06:26:34;;;;;;;7.10;2.78;;;;;;;;;;4962147;28;20115;-84
2022/03/14 06:29:00;;;;;;;14.70;3.15;;;;;;;;;;4963617;28;20050;-83
2022/03/14 06:31:26;;;;;;;8.55;2.53;;;;;;;;;;4978668;28;20054;-81
2022/03/14 06:33:52;;;;;;;6.55;2.47;;;;;;;;;;4963242;28;20054;-83
2022/03/14 06:36:19;;;;;;;9.70;2.75;;;;;;;;;;4978713;28;20114;-83
2022/03/14 06:38:45;;;;;;;8.30;2.80;;;;;;;;;;4961633;28;20034;-84
2022/03/14 06:41:12;;;;;;;6.55;3.08;;;;;;;;;;4978524;28;20023;-83
2022/03/14 06:43:38;;;;;;;9.40;2.72;;;;;;;;;;4978293;28;20035;-85
2022/03/14 06:46:05;;;;;;;11.27;3.00;;;;;;;;;;4960363;28;20026;-83
2022/03/14 06:48:31;;;;;;;11.95;3.15;;;;;;;;;;4977642;28;20027;-83
2022/03/14 06:50:57;;;;;;;4.57;2.83;;;;;;;;;;4978324;28;20102;-83
2022/03/14 06:53:23;;;;;;;6.40;2.53;;;;;;;;;;4959620;28;20511;-83
2022/03/14 06:55:49;;;;;;;6.47;2.50;;;;;;;;;;4960108;28;20038;-82
2022/03/14 06:58:15;;;;;;;10.57;2.90;;;;;;;;;;4981415;28;20314;-84
2022/03/14 07:00:42;;;;;;;10.27;3.20;;;;;;;;;;4958713;28;20031;-83
2022/03/14 07:03:08;;;;;;;12.68;2.63;;;;;;;;;;4976986;28;20107;-83
2022/03/14 07:05:34;;;;;;;7.43;2.47;;;;;;;;;;4956104;29;20058;-82
2022/03/14 07:08:00;;;;;;;10.00;2.63;;;;;;;;;;4973596;28;20505;-83
2022/03/14 07:10:26;;;;;;;7.07;2.38;;;;;;;;;;4977215;28;20035;-83
2022/03/14 07:12:52;;;;;;;9.65;3.08;;;;;;;;;;4978015;28;20030;-83
2022/03/14 07:15:21;;;;;;;7.43;2.65;;;;;;;;;;4977896;28;20037;-84
2022/03/14 07:17:47;;;;;;;4.28;2.10;;;;;;;;;;4966533;28;20487;-85
2022/03/14 07:20:13;;;;;;;7.93;2.47;;;;;;;;;;4960530;28;20086;-86
2022/03/14 07:22:49;;;;;;;9.93;2.80;;;;;;;;;;4976214;28;20027;-87
2022/03/14 07:25:18;;;;;;;8.05;2.30;;;;;;;;;;4944169;28;20065;-86
2022/03/14 07:27:44;;;;;;;9.57;2.90;;;;;;;;;;4959983;28;20113;-87
2022/03/14 07:30:10;;;;;;;10.85;2.97;;;;;;;;;;4977666;28;20053;-86
2022/03/14 07:32:36;;;;;;;11.45;2.30;;;;;;;;;;4978869;28;20031;-85
2022/03/14 07:35:02;;;;;;;6.07;2.67;;;;;;;;;;4980747;28;20445;-86
2022/03/14 07:37:28;;;;;;;12.00;2.53;;;;;;;;;;4966036;28;20057;-87
2022/03/14 07:39:55;;;;;;;10.40;2.75;;;;;;;;;;4970368;28;20039;-86
2022/03/14 07:42:21;;;;;;;10.38;2.53;;;;;;;;;;4971027;29;20043;-85
2022/03/14 07:44:48;;;;;;;10.75;2.05;;;;;;;;;;4967564;29;20023;-85
2022/03/14 07:47:14;;;;;;;9.80;2.65;;;;;;;;;;4955339;29;20023;-83
2022/03/14 07:49:40;;;;;;;6.18;2.55;;;;;;;;;;4968762;29;20490;-85
2022/03/14 07:52:07;;;;;;;6.15;2.95;;;;;;;;;;4949355;29;20039;-83
2022/03/14 07:54:33;;;;;;;7.03;2.00;;;;;;;;;;4968936;29;20062;-85
2022/03/14 07:56:59;;;;;;;9.02;2.30;;;;;;;;;;4989665;28;20038;-85
2022/03/14 07:59:25;;;;;;;5.35;1.92;;;;;;;;;;4993416;28;20437;-85
2022/03/14 08:01:51;;;;;;;6.57;2.20;;;;;;;;;;4983800;28;20031;-85
2022/03/14 08:04:17;;;;;;;13.43;2.50;;;;;;;;;;5001752;28;20025;-88
2022/03/14 08:06:43;;;;;;;7.55;2.58;;;;;;;;;;4984585;28;20043;-84
2022/03/14 08:09:09;;;;;;;3.63;1.75;;;;;;;;;;4991811;28;20058;-88
2022/03/14 08:11:38;;;;;;;11.85;2.55;;;;;;;;;;5000926;28;20029;-86
2022/03/14 08:14:04;;;;;;;10.55;2.40;;;;;;;;;;4984609;28;20011;-87
2022/03/14 08:16:30;;;;;;;10.07;2.05;;;;;;;;;;4999897;28;20058;-87
2022/03/14 08:18:56;;;;;;;10.90;2.22;;;;;;;;;;4981117;28;20015;-87
2022/03/14 08:21:23;;;;;;;7.55;1.70;;;;;;;;;;4980913;28;20043;-85
2022/03/14 08:23:50;;;;;;;5.50;2.00;;;;;;;;;;4981532;28;20039;-87
2022/03/14 08:26:17;;;;;;;10.25;2.22;;;;;;;;;;4981422;28;20046;-86
2022/03/14 08:28:44;;;;;;;10.02;2.30;;;;;;;;;;4980339;28;20030;-86
2022/03/14 08:31:11;;;;;;;11.02;2.03;;;;;;;;;;4983010;28;20015;-85
2022/03/14 08:33:40;;;;;;;7.65;2.00;;;;;;;;;;5001516;28;20019;-85
2022/03/14 08:36:09;;;;;;;9.35;2.42;;;;;;;;;;5001372;28;20011;-85
2022/03/14 08:38:35;;;;;;;7.65;1.85;;;;;;;;;;5001224;28;20026;-88
2022/03/14 08:41:01;;;;;;;8.40;2.05;;;;;;;;;;5000770;28;20022;-88
2022/03/14 08:43:27;;;;;;;4.85;1.65;;;;;;;;;;5001825;28;20078;-86
2022/03/14 08:45:54;;;;;;;11.23;2.03;;;;;;;;;;5001001;28;20015;-87
2022/03/14 08:48:20;;;;;;;4.60;1.20;;;;;;;;;;5000840;28;20047;-84
2022/03/14 08:50:46;;;;;;;11.80;2.30;;;;;;;;;;4984530;28;20011;-86
2022/03/14 08:53:12;;;;;;;8.68;1.50;;;;;;;;;;4987636;28;20118;-83
2022/03/14 08:55:39;;;;;;;4.25;1.92;;;;;;;;;;4968909;28;20054;-82
2022/03/14 08:58:05;;;;;;;6.00;2.15;;;;;;;;;;4978700;28;20046;-84
2022/03/14 09:00:31;;;;;;;5.88;1.38;;;;;;;;;;4979683;28;20042;-83
2022/03/14 09:02:57;;;;;;;6.68;2.50;;;;;;;;;;4979308;28;20022;-85
2022/03/14 09:05:23;;;;;;;5.93;1.55;;;;;;;;;;4980271;28;20031;-82
2022/03/14 09:07:51;;;;;;;6.60;1.70;;;;;;;;;;4979710;28;20030;-84
2022/03/14 09:10:17;;;;;;;5.32;1.60;;;;;;;;;;4978348;28;20101;-83
2022/03/14 09:12:43;;;;;;;5.68;1.35;;;;;;;;;;4979778;28;20031;-83
2022/03/14 09:15:11;;;;;;;6.85;2.00;;;;;;;;;;4980645;28;20419;-83
2022/03/14 09:18:03;;;;;;;4.55;1.20;;;;;;;;;;4979743;28;20058;-84
2022/03/14 09:20:38;;;;;;;6.82;1.42;;;;;;;;;;4980334;28;20041;-86
2022/03/14 09:23:05;;;;;;;8.52;2.00;;;;;;;;;;4980088;28;20091;-85
2022/03/14 09:25:31;;;;;;;10.15;1.35;;;;;;;;;;4962568;28;20117;-83
2022/03/14 09:27:57;;;;;;;3.88;1.05;;;;;;;;;;4979470;28;20046;-83
2022/03/14 09:30:24;;;;;;;6.55;1.30;;;;;;;;;;4980059;28;20061;-84
2022/03/14 09:32:51;;;;;;;4.35;1.33;;;;;;;;;;4979363;28;20129;-85
2022/03/14 09:35:17;;;;;;;5.60;1.38;;;;;;;;;;4980571;28;20019;-84
2022/03/14 09:37:44;;;;;;;7.68;1.50;;;;;;;;;;4979226;28;20031;-84
2022/03/14 09:40:12;;;;;;;5.53;1.30;;;;;;;;;;4978638;28;20030;-84
2022/03/14 09:42:39;;;;;;;4.10;1.20;;;;;;;;;;4962382;28;20033;-84
2022/03/14 09:45:06;;;;;;;5.07;1.05;;;;;;;;;;4968424;28;20035;-87
2022/03/14 09:47:42;;;;;;;5.05;1.75;;;;;;;;;;4999252;28;20015;-89
2022/03/14 09:50:11;;;;;;;5.78;1.65;;;;;;;;;;4982571;28;20046;-87
2022/03/14 09:52:38;;;;;;;3.80;1.20;;;;;;;;;;4982829;28;20062;-88
2022/03/14 09:55:06;;;;;;;5.00;1.30;;;;;;;;;;4999171;28;20029;-88
2022/03/14 09:57:32;;;;;;;5.25;1.65;;;;;;;;;;4981713;28;20019;-90
2022/03/14 09:59:58;;;;;;;5.10;1.75;;;;;;;;;;4983144;28;20027;-87
2022/03/14 10:02:24;;;;;;;5.50;1.15;;;;;;;;;;4999183;28;20082;-87
2022/03/14 10:04:50;;;;;;;9.63;1.70;;;;;;;;;;4999514;28;20023;-86
2022/03/14 10:07:17;;;;;;;9.82;1.90;;;;;;;;;;4982493;28;20038;-86
2022/03/14 10:09:43;;;;;;;7.00;1.80;;;;;;;;;;4999624;28;20039;-86
2022/03/14 10:12:12;;;;;;;8.25;1.50;;;;;;;;;;4999203;28;20015;-87
2022/03/14 10:14:38;;;;;;;7.43;1.60;;;;;;;;;;4999757;28;20010;-88
2022/03/14 10:17:04;;;;;;;4.35;1.50;;;;;;;;;;4994515;28;20031;-85
2022/03/14 10:19:32;;;;;;;6.15;1.63;;;;;;;;;;4964292;28;20023;-85
2022/03/14 10:22:13;;;;;;;7.32;1.60;;;;;;;;;;4963210;28;20019;-85
2022/03/14 10:24:39;;;;;;;3.13;1.15;;;;;;;;;;4980861;28;20055;-85
2022/03/14 10:27:05;;;;;;;3.67;1.70;;;;;;;;;;4963581;28;20039;-83
2022/03/14 10:29:32;;;;;;;8.60;1.80;;;;;;;;;;4979939;28;20017;-87
2022/03/14 10:31:59;;;;;;;2.90;1.73;;;;;;;;;;4979860;28;20026;-85
2022/03/14 10:34:25;;;;;;;4.07;1.95;;;;;;;;;;4964052;28;20079;-85
2022/03/14 10:36:53;;;;;;;5.30;1.30;;;;;;;;;;4979270;28;20031;-84
2022/03/14 10:39:19;;;;;;;8.85;1.48;;;;;;;;;;4963064;28;20077;-86
2022/03/14 10:41:45;;;;;;;7.57;1.38;;;;;;;;;;4959704;28;20034;-84
2022/03/14 10:44:22;;;;;;;4.97;1.80;;;;;;;;;;4959811;29;20612;-83
2022/03/14 10:46:48;;;;;;;8.57;1.27;;;;;;;;;;4959227;29;20031;-82
2022/03/14 10:49:16;;;;;;;8.77;1.58;;;;;;;;;;4961464;28;20054;-82
2022/03/14 10:51:59;;;;;;;5.03;1.40;;;;;;;;;;4959659;28;20023;-82
2022/03/14 10:54:25;;;;;;;5.03;1.30;;;;;;;;;;4966291;28;20027;-81
2022/03/14 10:57:01;;;;;;;5.05;1.33;;;;;;;;;;4976505;28;20545;-81
2022/03/14 10:59:53;;;;;;;8.13;1.42;;;;;;;;;;4976430;28;20133;-82
2022/03/14 11:02:22;;;;;;;7.07;1.60;;;;;;;;;;4974003;28;20027;-82
2022/03/14 11:04:48;;;;;;;6.38;1.63;;;;;;;;;;4974720;28;20043;-82
2022/03/14 11:07:15;;;;;;;5.47;1.70;;;;;;;;;;4958452;29;20031;-83
2022/03/14 11:09:41;;;;;;;6.85;1.40;;;;;;;;;;4959164;29;20027;-82
2022/03/14 11:12:09;;;;;;;8.18;1.80;;;;;;;;;;4959453;29;20553;-82
2022/03/14 11:14:35;;;;;;;8.88;1.83;;;;;;;;;;4958706;29;20121;-82
2022/03/14 11:17:14;;;;;;;9.45;2.22;;;;;;;;;;4958309;29;20034;-80
2022/03/14 11:19:41;;;;;;;6.70;1.98;;;;;;;;;;4941333;29;20039;-82
2022/03/14 11:22:10;;;;;;;6.22;2.10;;;;;;;;;;4958426;29;20031;-81
2022/03/14 11:24:37;;;;;;;6.80;2.13;;;;;;;;;;4959234;29;20098;-82
2022/03/14 11:27:03;;;;;;;7.47;2.13;;;;;;;;;;4941890;29;20126;-81
2022/03/14 11:29:31;;;;;;;11.50;3.08;;;;;;;;;;4964089;28;20121;-81
2022/03/14 11:31:57;;;;;;;10.63;2.88;;;;;;;;;;4979627;28;20383;-84
2022/03/14 11:34:26;;;;;;;8.38;2.42;;;;;;;;;;4979631;28;20106;-84
2022/03/14 11:36:53;;;;;;;6.38;2.30;;;;;;;;;;4962047;28;20023;-82
2022/03/14 11:39:19;;;;;;;8.93;2.72;;;;;;;;;;4978604;28;20033;-83
2022/03/14 11:41:45;;;;;;;8.27;1.80;;;;;;;;;;4978902;28;20027;-82
2022/03/14 11:44:12;;;;;;;7.68;2.17;;;;;;;;;;4978842;28;20030;-86
2022/03/14 11:46:38;;;;;;;6.95;2.30;;;;;;;;;;4978362;28;20814;-83
2022/03/14 11:49:14;;;;;;;12.55;2.05;;;;;;;;;;4978509;28;20026;-84
2022/03/14 11:51:41;;;;;;;12.15;2.53;;;;;;;;;;4961498;28;20030;-84
2022/03/14 11:54:11;;;;;;;18.85;3.13;;;;;;;;;;4978384;28;20023;-84
2022/03/14 11:57:06;;;;;;;5.63;1.63;;;;;;;;;;5002978;22;20016;-83
2022/03/14 11:59:36;;;;;;;4.32;1.30;;;;;;;;;;5019452;28;20048;-84
2022/03/14 12:02:05;;;;;;;6.85;1.65;;;;;;;;;;5018048;28;20083;-83
2022/03/14 12:07:55;;;;;;;3.65;1.40;;;;;;;;;;5079658;23;20091;-84
2022/03/14 12:13:48;;;;;;;6.88;1.33;;;;;;;;;;5057850;28;20049;-84
2022/03/14 12:16:45;;;;;;;5.95;1.60;;;;;;;;;;5047751;28;20057;-82
2022/03/14 12:19:34;;;;;;;5.30;1.48;;;;;;;;;;5031094;28;20029;-83
2022/03/14 12:22:43;;;;;;;5.53;1.70;;;;;;;;;;5033227;28;20022;-86
2022/03/14 12:28:40;;;;;;;6.38;1.70;;;;;;;;;;4953837;29;20034;-86
2022/03/14 12:43:57;;;;;;;3.45;1.60;;;;;;;;;;4935765;29;20420;-85
2022/03/14 12:47:09;;;;;;;;;;;;;;;;;;;;;
2022/03/14 12:56:08;;;;;;;4.55;1.52;;;;;;;;;;5033288;28;20029;-84
2022/03/14 13:08:37;;;;;;;3.90;1.40;;;;;;;;;;4953893;29;20043;-83
2022/03/14 13:14:42;;;;;;;;;;;;;;;;;;;;;
2022/03/14 13:17:49;;;;;;;;;;;;;;;;;;;;;
2022/03/14 13:20:57;;;;;;;2.60;1.50;;;;;;;;;;5037453;28;20144;-86
2022/03/14 13:23:59;;;;;;;4.70;1.20;;;;;;;;;;4929206;29;20131;-84
2022/03/14 13:26:27;;;;;;;6.30;1.60;;;;;;;;;;4930060;29;20131;-86
2022/03/14 13:28:53;;;;;;;5.30;1.40;;;;;;;;;;5004704;28;20038;-85
2022/03/14 13:31:32;;;;;;;5.05;2.28;;;;;;;;;;5022063;28;20032;-87
2022/03/14 13:33:58;;;;;;;4.10;1.70;;;;;;;;;;5003092;28;20030;-86
2022/03/14 13:36:24;;;;;;;9.82;2.05;;;;;;;;;;4997673;28;20121;-85
2022/03/14 13:38:52;;;;;;;5.15;1.70;;;;;;;;;;5001352;28;20545;-86
2022/03/14 13:41:26;;;;;;;8.57;1.40;;;;;;;;;;4984003;28;20030;-84
2022/03/14 13:43:54;;;;;;;4.90;1.67;;;;;;;;;;4983728;28;20022;-88
2022/03/14 13:46:24;;;;;;;3.90;1.30;;;;;;;;;;4984895;28;20033;-87
2022/03/14 13:48:51;;;;;;;4.45;1.30;;;;;;;;;;4992641;28;19998;-87
2022/03/14 13:51:19;;;;;;;4.22;1.10;;;;;;;;;;5011789;28;20034;-87
2022/03/14 13:53:46;;;;;;;5.22;1.92;;;;;;;;;;5008706;28;20018;-87
2022/03/14 13:56:12;;;;;;;4.47;1.50;;;;;;;;;;5015711;28;20414;-84
2022/03/14 13:58:39;;;;;;;2.97;1.27;;;;;;;;;;5004077;28;20030;-86
2022/03/14 14:01:05;;;;;;;3.28;1.05;;;;;;;;;;4983496;28;20034;-84
2022/03/14 14:03:32;;;;;;;4.90;1.17;;;;;;;;;;5001228;28;20022;-87
2022/03/14 14:06:14;;;;;;;1.23;0.65;;;;;;;;;;5000887;28;20074;-85
2022/03/14 14:08:40;;;;;;;3.05;1.10;;;;;;;;;;5013077;28;20022;-86
2022/03/14 14:11:06;;;;;;;7.20;1.58;;;;;;;;;;5002842;28;20040;-86
2022/03/14 14:13:47;;;;;;;2.83;1.20;;;;;;;;;;5020536;28;20033;-87
2022/03/14 14:16:17;;;;;;;2.20;0.90;;;;;;;;;;5019895;28;20036;-85
2022/03/14 14:18:44;;;;;;;4.32;1.10;;;;;;;;;;5001049;28;20042;-86
2022/03/14 14:21:17;;;;;;;2.10;0.90;;;;;;;;;;4982122;28;20030;-87
2022/03/14 14:23:43;;;;;;;2.33;0.88;;;;;;;;;;4984114;28;20023;-86
2022/03/14 14:26:09;;;;;;;4.75;1.45;;;;;;;;;;5015281;28;20101;-84
2022/03/14 14:28:39;;;;;;;2.17;1.13;;;;;;;;;;5018737;28;20033;-85
2022/03/14 14:31:05;;;;;;;2.75;1.50;;;;;;;;;;5001366;28;20037;-84
2022/03/14 14:33:32;;;;;;;3.30;1.38;;;;;;;;;;4999557;28;20125;-85
2022/03/14 14:35:59;;;;;;;2.13;1.05;;;;;;;;;;4982266;28;20023;-84
2022/03/14 14:38:26;;;;;;;2.13;1.10;;;;;;;;;;4982244;28;20054;-86
2022/03/14 14:40:53;;;;;;;2.75;1.17;;;;;;;;;;4982270;28;20026;-86
2022/03/14 14:43:20;;;;;;;3.22;1.30;;;;;;;;;;4981780;28;20029;-85
2022/03/14 14:45:46;;;;;;;5.32;1.42;;;;;;;;;;5000971;28;20441;-84
2022/03/14 14:48:12;;;;;;;2.90;1.10;;;;;;;;;;4999018;28;20086;-84
2022/03/14 14:50:43;;;;;;;3.30;1.10;;;;;;;;;;5000911;28;20077;-85
2022/03/14 14:53:13;;;;;;;5.13;1.20;;;;;;;;;;5005214;28;20113;-85
2022/03/14 14:55:45;;;;;;;5.18;1.33;;;;;;;;;;4999035;28;20030;-84
2022/03/14 15:00:43;;;;;;;2.85;1.30;;;;;;;;;;5005398;28;20047;-87
2022/03/14 15:03:18;;;;;;;2.08;1.10;;;;;;;;;;5006008;28;20034;-86
2022/03/14 15:05:45;;;;;;;5.70;1.30;;;;;;;;;;5019230;28;20025;-84
2022/03/14 15:08:21;;;;;;;3.45;1.30;;;;;;;;;;5006227;28;20115;-85
2022/03/14 15:10:47;;;;;;;2.70;1.60;;;;;;;;;;5033040;28;20038;-90
2022/03/14 15:13:19;;;;;;;3.90;1.67;;;;;;;;;;5051854;22;20133;-87
2022/03/14 15:15:49;;;;;;;3.83;0.93;;;;;;;;;;5031099;28;20448;-87
2022/03/14 15:18:17;;;;;;;1.45;0.75;;;;;;;;;;5025402;28;20029;-87
2022/03/14 15:20:43;;;;;;;2.85;1.35;;;;;;;;;;5025119;28;20108;-87
2022/03/14 15:23:12;;;;;;;3.33;1.08;;;;;;;;;;5014773;28;20072;-84
2022/03/14 15:25:41;;;;;;;2.60;0.80;;;;;;;;;;5008377;28;20025;-88
2022/03/14 15:28:12;;;;;;;2.97;0.95;;;;;;;;;;4996872;28;20036;-85
2022/03/14 15:30:44;;;;;;;1.67;0.68;;;;;;;;;;5019897;28;20042;-87
2022/03/14 15:33:13;;;;;;;2.00;0.70;;;;;;;;;;5019917;28;20493;-87
2022/03/14 15:35:41;;;;;;;2.08;0.90;;;;;;;;;;5012631;28;20030;-85
2022/03/14 15:38:10;;;;;;;3.55;1.08;;;;;;;;;;5007767;28;20597;-87
2022/03/14 15:40:43;;;;;;;3.58;1.20;;;;;;;;;;5002796;28;20022;-87
2022/03/14 15:43:18;;;;;;;2.03;0.90;;;;;;;;;;5007970;28;20042;-88
2022/03/14 15:45:49;;;;;;;2.03;1.05;;;;;;;;;;4984830;28;20396;-89
2022/03/14 15:52:09;;;;;;;2.22;1.38;;;;;;;;;;4972966;28;20415;-85
2022/03/14 15:58:05;;;;;;;;;;;;;;;;;;;;;
2022/03/14 16:04:03;;;;;;;2.10;1.10;;;;;;;;;;4965014;28;20035;-86
2022/03/14 16:07:16;;;;;;;;;;;;;;;;;;;;;
2022/03/14 16:10:06;;;;;;;2.17;1.50;;;;;;;;;;4964129;28;20038;-84